Time;durP1;ratioP1;P1;durP2;ratioP2;P2;SDS_P1;SDS_P2;PMS_P1;PMS_P2;Temp;Humidity;BMP_temperature;BMP_pressure;BME280_temperature;BME280_humidity;BME280_pressure;Samples;Min_cycle;Max_cycle;Signal;HPM_P1;HPM_P2
2021/09/26 00:01:23;;;;;;;10.38;8.18;;;13.50;89.70;;;;;;5084390;28;20017;-69
2021/09/26 00:03:48;;;;;;;10.18;8.07;;;13.40;89.80;;;;;;5067856;28;20070;-69
2021/09/26 00:06:14;;;;;;;11.45;8.50;;;13.40;90.00;;;;;;5070175;28;20028;-68
2021/09/26 00:08:39;;;;;;;10.35;9.25;;;13.50;90.00;;;;;;5070198;28;20024;-68
2021/09/26 00:11:06;;;;;;;10.10;9.10;;;13.50;90.20;;;;;;5068533;28;20025;-68
2021/09/26 00:13:37;;;;;;;13.70;10.60;;;13.50;90.20;;;;;;5057929;28;20032;-68
2021/09/26 00:16:04;;;;;;;13.13;9.98;;;13.50;90.30;;;;;;5078522;28;20031;-68
2021/09/26 00:18:30;;;;;;;21.25;10.73;;;13.50;90.30;;;;;;5070813;28;20071;-69
2021/09/26 00:20:55;;;;;;;12.25;10.32;;;13.50;90.30;;;;;;5069632;28;20452;-69
2021/09/26 00:23:21;;;;;;;13.82;10.65;;;13.50;90.30;;;;;;5068069;28;20410;-69
2021/09/26 00:25:47;;;;;;;12.43;9.82;;;13.50;90.30;;;;;;5067227;28;20052;-69
2021/09/26 00:28:14;;;;;;;13.60;9.95;;;13.50;90.30;;;;;;5070229;28;20017;-68
2021/09/26 00:30:40;;;;;;;12.50;10.20;;;13.50;90.20;;;;;;5069812;28;20020;-69
2021/09/26 00:33:05;;;;;;;11.35;10.00;;;13.50;90.20;;;;;;5068787;28;20024;-69
2021/09/26 00:35:31;;;;;;;13.45;10.55;;;13.40;90.20;;;;;;5070430;28;20029;-69
2021/09/26 00:37:56;;;;;;;12.40;10.82;;;13.40;90.10;;;;;;5064221;28;20063;-69
2021/09/26 00:40:22;;;;;;;16.05;11.02;;;13.40;90.10;;;;;;5065713;28;20037;-69
2021/09/26 00:42:48;;;;;;;11.38;10.02;;;13.50;90.10;;;;;;5069503;28;20052;-69
2021/09/26 00:45:14;;;;;;;14.65;10.63;;;13.50;89.90;;;;;;5068234;28;20040;-69
2021/09/26 00:47:40;;;;;;;12.52;10.35;;;13.50;89.70;;;;;;5070517;28;20029;-68
2021/09/26 00:50:07;;;;;;;11.93;10.23;;;13.50;89.60;;;;;;5064500;28;20489;-69
2021/09/26 00:52:33;;;;;;;12.00;10.70;;;13.50;89.50;;;;;;5070790;28;20112;-69
2021/09/26 00:54:59;;;;;;;13.00;9.82;;;13.50;89.60;;;;;;5070379;28;20111;-69
2021/09/26 00:57:24;;;;;;;13.48;9.75;;;13.50;89.60;;;;;;5066641;28;20520;-69
2021/09/26 00:59:50;;;;;;;14.35;10.88;;;13.50;89.60;;;;;;5068455;28;20383;-69
2021/09/26 01:02:16;;;;;;;12.50;10.27;;;13.50;89.60;;;;;;5069320;28;20543;-69
2021/09/26 01:04:43;;;;;;;14.27;10.90;;;13.40;89.70;;;;;;5066659;28;20044;-68
2021/09/26 01:07:24;;;;;;;13.88;10.60;;;13.40;89.80;;;;;;5066320;28;20082;-69
2021/09/26 01:09:56;;;;;;;;;;;13.30;89.90;;;;;;5068893;28;20026;-69
2021/09/26 01:12:36;;;;;;;13.23;10.90;;;13.40;89.90;;;;;;5069834;28;19912;-68
2021/09/26 01:15:07;;;;;;;13.30;10.68;;;13.30;90.00;;;;;;5067500;28;20056;-69
2021/09/26 01:17:40;;;;;;;16.50;11.10;;;13.30;89.90;;;;;;5070339;28;20090;-69
2021/09/26 01:20:35;;;;;;;11.77;10.32;;;13.30;89.90;;;;;;5067735;28;20032;-69
2021/09/26 01:23:04;;;;;;;13.38;10.57;;;13.20;89.90;;;;;;5068960;28;20045;-70
2021/09/26 01:26:08;;;;;;;15.50;11.10;;;13.20;90.00;;;;;;5069742;28;20032;-69
2021/09/26 01:28:51;;;;;;;21.48;10.70;;;13.20;90.00;;;;;;5062309;28;20025;-70
2021/09/26 01:31:24;;;;;;;13.27;10.40;;;13.20;90.00;;;;;;5065127;28;20035;-69
2021/09/26 01:33:54;;;;;;;12.85;10.93;;;13.10;90.10;;;;;;5071016;28;20024;-69
2021/09/26 01:36:47;;;;;;;13.93;10.90;;;13.20;90.10;;;;;;5069269;28;20024;-68
2021/09/26 01:39:27;;;;;;;14.00;11.05;;;13.20;90.10;;;;;;5066236;28;20206;-69
2021/09/26 01:42:19;;;;;;;14.13;11.45;;;13.20;90.10;;;;;;5068906;28;20078;-71
2021/09/26 01:45:03;;;;;;;14.73;11.30;;;13.20;90.10;;;;;;5069392;28;20131;-68
2021/09/26 01:47:37;;;;;;;13.23;11.07;;;13.10;90.00;;;;;;5063363;28;20083;-69
2021/09/26 01:50:09;;;;;;;14.68;11.23;;;13.10;90.20;;;;;;5063915;28;20021;-69
2021/09/26 01:52:38;;;;;;;18.65;11.50;;;13.10;90.20;;;;;;5068400;28;20048;-69
2021/09/26 01:55:05;;;;;;;15.80;11.85;;;13.10;90.20;;;;;;5068867;28;20040;-68
2021/09/26 01:57:33;;;;;;;12.55;11.25;;;13.10;90.20;;;;;;5070213;28;20024;-69
2021/09/26 02:00:02;;;;;;;14.65;11.48;;;13.10;90.10;;;;;;5061443;28;20070;-68
2021/09/26 02:02:28;;;;;;;14.20;11.82;;;13.10;90.00;;;;;;5064450;28;20024;-68
2021/09/26 02:04:59;;;;;;;18.15;12.15;;;13.10;90.10;;;;;;5069520;28;20027;-70
2021/09/26 02:07:29;;;;;;;13.85;11.20;;;13.10;90.10;;;;;;5073269;28;20150;-69
2021/09/26 02:09:55;;;;;;;13.93;10.75;;;13.10;90.20;;;;;;5072789;28;20036;-69
2021/09/26 02:12:23;;;;;;;14.30;11.52;;;13.00;90.30;;;;;;5073260;28;20031;-69
2021/09/26 02:14:49;;;;;;;15.38;12.57;;;13.00;90.40;;;;;;5073347;28;20032;-69
2021/09/26 02:17:16;;;;;;;16.38;12.70;;;13.00;90.60;;;;;;5069345;28;20032;-69
2021/09/26 02:19:42;;;;;;;12.93;11.63;;;13.00;90.50;;;;;;5071939;28;20047;-69
2021/09/26 02:22:09;;;;;;;16.92;12.13;;;13.00;90.40;;;;;;5067761;28;20061;-68
2021/09/26 02:24:37;;;;;;;14.63;11.73;;;13.00;90.50;;;;;;5072189;28;20032;-69
2021/09/26 02:27:03;;;;;;;13.43;12.02;;;13.00;90.60;;;;;;5073071;28;20067;-69
2021/09/26 02:29:29;;;;;;;16.27;12.90;;;12.90;90.60;;;;;;5072309;28;20024;-69
2021/09/26 02:31:55;;;;;;;14.55;12.82;;;12.90;90.70;;;;;;5068408;28;20028;-69
2021/09/26 02:34:20;;;;;;;17.70;12.98;;;13.00;90.80;;;;;;5071231;28;20378;-69
2021/09/26 02:36:46;;;;;;;14.18;11.95;;;12.90;90.70;;;;;;5073379;28;20082;-69
2021/09/26 02:39:16;;;;;;;17.50;12.40;;;12.90;90.70;;;;;;5072560;28;20095;-68
2021/09/26 02:41:53;;;;;;;13.63;12.05;;;12.90;90.80;;;;;;5072961;28;20074;-69
2021/09/26 02:44:45;;;;;;;14.70;12.70;;;12.80;90.80;;;;;;5071392;28;20482;-68
2021/09/26 02:47:23;;;;;;;14.43;11.63;;;12.80;90.80;;;;;;5067015;28;20592;-69
2021/09/26 02:49:49;;;;;;;15.70;12.00;;;12.80;90.90;;;;;;5066396;28;20029;-69
2021/09/26 02:52:15;;;;;;;14.80;13.13;;;12.80;90.70;;;;;;5072539;28;20047;-69
2021/09/26 02:54:41;;;;;;;15.25;12.57;;;12.80;90.80;;;;;;5072407;28;20036;-69
2021/09/26 02:57:09;;;;;;;14.07;12.30;;;12.80;90.90;;;;;;5069736;28;20032;-68
2021/09/26 02:59:36;;;;;;;14.73;12.57;;;12.80;90.80;;;;;;5066901;28;20067;-69
2021/09/26 03:02:02;;;;;;;14.35;12.68;;;12.70;90.70;;;;;;5069581;28;20074;-68
2021/09/26 03:04:28;;;;;;;14.25;12.35;;;12.80;90.80;;;;;;5070958;28;20044;-69
2021/09/26 03:06:54;;;;;;;16.30;12.43;;;12.70;90.90;;;;;;5071283;28;20056;-69
2021/09/26 03:09:20;;;;;;;15.52;12.23;;;12.70;90.90;;;;;;5067933;28;20558;-68
2021/09/26 03:11:45;;;;;;;14.57;12.93;;;12.60;91.00;;;;;;5064300;28;20041;-68
2021/09/26 03:14:11;;;;;;;16.88;11.75;;;12.70;91.00;;;;;;5072757;28;20071;-69
2021/09/26 03:16:36;;;;;;;15.60;12.75;;;12.70;91.10;;;;;;5068108;28;20086;-69
2021/09/26 03:19:02;;;;;;;13.95;12.30;;;12.60;91.20;;;;;;5067118;28;20174;-69
2021/09/26 03:21:28;;;;;;;15.98;13.30;;;12.60;91.10;;;;;;5066520;28;20063;-69
2021/09/26 03:23:55;;;;;;;13.15;11.77;;;12.70;91.20;;;;;;5069708;28;20023;-69
2021/09/26 03:26:21;;;;;;;14.32;12.18;;;12.70;91.10;;;;;;5072900;28;20120;-68
2021/09/26 03:28:46;;;;;;;14.85;12.63;;;12.70;91.10;;;;;;5070283;28;20099;-69
2021/09/26 03:31:12;;;;;;;14.40;11.80;;;12.70;91.00;;;;;;5070092;28;20024;-69
2021/09/26 03:33:38;;;;;;;16.48;12.00;;;12.70;90.90;;;;;;5069073;28;20035;-69
2021/09/26 03:36:04;;;;;;;12.05;10.43;;;12.60;90.70;;;;;;5068901;28;20027;-70
2021/09/26 03:38:29;;;;;;;14.07;11.18;;;12.50;90.70;;;;;;5071419;28;20107;-68
2021/09/26 03:40:55;;;;;;;17.98;11.48;;;12.50;90.80;;;;;;5070470;28;20039;-69
2021/09/26 03:43:21;;;;;;;13.20;10.82;;;12.50;91.00;;;;;;5069816;28;20139;-68
2021/09/26 03:45:50;;;;;;;14.48;10.93;;;12.40;90.90;;;;;;5066763;28;20025;-69
2021/09/26 03:48:18;;;;;;;12.27;10.43;;;12.30;91.00;;;;;;5069571;28;20039;-69
2021/09/26 03:50:44;;;;;;;14.55;11.60;;;12.30;91.10;;;;;;5066375;28;20028;-68
2021/09/26 03:53:09;;;;;;;14.20;11.48;;;12.20;91.30;;;;;;5070233;28;20553;-68
2021/09/26 03:55:35;;;;;;;13.25;11.25;;;12.20;91.30;;;;;;5070270;28;20457;-68
2021/09/26 03:58:00;;;;;;;15.88;12.40;;;12.10;91.40;;;;;;5071922;28;20028;-68
2021/09/26 04:00:26;;;;;;;14.82;13.18;;;12.20;91.60;;;;;;5065078;28;20037;-68
2021/09/26 04:02:51;;;;;;;13.70;12.27;;;12.20;91.70;;;;;;5069094;28;20078;-69
2021/09/26 04:05:17;;;;;;;18.73;14.80;;;12.10;91.70;;;;;;5067950;28;20016;-69
2021/09/26 04:07:42;;;;;;;15.93;13.73;;;12.20;92.10;;;;;;5068487;28;20074;-69
2021/09/26 04:10:09;;;;;;;19.92;14.43;;;12.30;92.00;;;;;;5063591;28;20029;-70
2021/09/26 04:12:35;;;;;;;18.00;14.57;;;12.40;91.90;;;;;;5062258;28;20032;-68
2021/09/26 04:15:01;;;;;;;16.67;14.43;;;12.50;91.70;;;;;;5064307;28;20040;-68
2021/09/26 04:17:27;;;;;;;16.23;13.60;;;12.50;91.60;;;;;;5059511;28;20029;-68
2021/09/26 04:19:52;;;;;;;23.98;14.68;;;12.50;91.50;;;;;;5067454;28;20382;-69
2021/09/26 04:22:18;;;;;;;20.27;14.50;;;12.50;91.60;;;;;;5067987;28;20017;-69
2021/09/26 04:24:43;;;;;;;16.17;13.80;;;12.50;91.50;;;;;;5064977;28;20655;-69
2021/09/26 04:27:09;;;;;;;18.42;14.05;;;12.50;91.50;;;;;;5097217;22;20048;-67
2021/09/26 04:29:34;;;;;;;15.65;13.23;;;12.60;91.30;;;;;;5069246;28;20478;-66
2021/09/26 04:32:00;;;;;;;17.27;13.45;;;12.70;91.20;;;;;;5071198;28;20493;-65
2021/09/26 04:34:28;;;;;;;16.33;13.10;;;12.80;91.10;;;;;;5071245;28;20056;-65
2021/09/26 04:36:57;;;;;;;17.75;13.60;;;12.80;91.00;;;;;;5069791;28;20032;-65
2021/09/26 04:39:23;;;;;;;17.30;12.75;;;12.80;90.80;;;;;;5068761;28;20029;-66
2021/09/26 04:41:48;;;;;;;17.45;12.55;;;12.80;90.80;;;;;;5070351;28;20040;-65
2021/09/26 04:44:14;;;;;;;14.57;12.13;;;12.90;90.70;;;;;;5066596;28;20100;-65
2021/09/26 04:46:40;;;;;;;18.30;12.73;;;12.90;90.50;;;;;;5069746;28;20060;-65
2021/09/26 04:49:06;;;;;;;13.45;11.63;;;13.00;90.30;;;;;;5068638;28;20047;-65
2021/09/26 04:51:31;;;;;;;16.95;13.57;;;13.00;90.10;;;;;;5069067;28;20043;-65
2021/09/26 04:53:57;;;;;;;18.10;13.10;;;13.00;90.00;;;;;;5068553;28;20028;-65
2021/09/26 04:56:22;;;;;;;15.23;12.73;;;13.00;89.90;;;;;;5061358;28;20040;-65
2021/09/26 04:58:48;;;;;;;15.18;12.13;;;13.10;89.80;;;;;;5068308;28;20038;-67
2021/09/26 05:01:16;;;;;;;15.15;12.45;;;13.20;89.60;;;;;;5068191;28;20389;-67
2021/09/26 05:03:42;;;;;;;16.40;11.98;;;13.20;89.50;;;;;;5069984;28;20032;-67
2021/09/26 05:06:07;;;;;;;13.02;11.65;;;13.30;89.30;;;;;;5070399;28;20032;-66
2021/09/26 05:08:33;;;;;;;14.68;11.30;;;13.30;89.00;;;;;;5068961;28;20027;-67
2021/09/26 05:10:59;;;;;;;16.58;11.90;;;13.40;88.70;;;;;;5069235;28;20021;-67
2021/09/26 05:13:24;;;;;;;14.95;11.45;;;13.40;88.60;;;;;;5067241;28;20033;-66
2021/09/26 05:15:50;;;;;;;14.50;10.60;;;13.50;88.60;;;;;;5070083;28;20509;-67
2021/09/26 05:18:17;;;;;;;12.27;10.25;;;13.60;88.30;;;;;;5066700;28;20137;-67
2021/09/26 05:20:43;;;;;;;17.65;10.70;;;13.90;87.20;;;;;;5067071;28;20017;-67
2021/09/26 05:23:09;;;;;;;11.55;10.32;;;14.00;86.40;;;;;;5062290;28;20033;-67
2021/09/26 05:25:34;;;;;;;10.73;9.63;;;14.00;86.00;;;;;;5065785;28;20101;-66
2021/09/26 05:28:02;;;;;;;11.75;9.65;;;14.00;86.30;;;;;;5056651;28;20033;-67
2021/09/26 05:30:29;;;;;;;12.13;10.00;;;14.00;86.30;;;;;;5064105;28;20056;-66
2021/09/26 05:32:55;;;;;;;12.48;10.00;;;14.00;86.30;;;;;;5068860;28;20024;-65
2021/09/26 05:35:21;;;;;;;12.30;10.32;;;14.00;86.20;;;;;;5064474;28;20024;-65
2021/09/26 05:37:46;;;;;;;11.90;9.85;;;14.00;86.20;;;;;;5063743;28;20047;-65
2021/09/26 05:40:13;;;;;;;15.70;10.50;;;14.00;86.20;;;;;;5070869;28;20478;-65
2021/09/26 05:42:38;;;;;;;12.18;9.63;;;14.00;86.20;;;;;;5074953;28;20086;-66
2021/09/26 05:45:04;;;;;;;11.80;10.50;;;14.00;86.40;;;;;;5069258;28;20036;-65
2021/09/26 05:47:30;;;;;;;11.38;9.90;;;14.00;86.30;;;;;;5069392;28;20112;-66
2021/09/26 05:49:55;;;;;;;13.10;10.65;;;14.00;86.50;;;;;;5071991;28;20115;-66
2021/09/26 05:52:21;;;;;;;11.93;10.70;;;13.90;86.60;;;;;;5072769;28;20094;-66
2021/09/26 05:54:47;;;;;;;13.85;10.82;;;13.90;86.70;;;;;;5068025;28;20032;-66
2021/09/26 05:57:12;;;;;;;12.55;9.98;;;14.00;86.60;;;;;;5068274;28;20500;-66
2021/09/26 05:59:38;;;;;;;11.02;9.38;;;14.00;86.30;;;;;;5071506;28;20028;-66
2021/09/26 06:02:06;;;;;;;14.32;10.60;;;14.20;86.10;;;;;;5064079;28;20038;-66
2021/09/26 06:04:32;;;;;;;12.48;10.38;;;14.20;85.80;;;;;;5067857;28;20358;-67
2021/09/26 06:06:57;;;;;;;11.07;9.82;;;14.50;85.30;;;;;;5065788;28;20063;-66
2021/09/26 06:09:23;;;;;;;13.82;9.48;;;14.60;84.90;;;;;;5069855;28;20741;-67
2021/09/26 06:11:48;;;;;;;12.68;8.02;;;14.90;84.60;;;;;;5065871;28;20106;-66
2021/09/26 06:14:14;;;;;;;13.27;8.85;;;15.00;83.80;;;;;;5072035;28;20115;-66
2021/09/26 06:16:40;;;;;;;13.35;8.38;;;15.10;82.90;;;;;;5059830;28;20060;-66
2021/09/26 06:19:06;;;;;;;12.57;8.68;;;15.20;82.80;;;;;;5066452;28;20031;-67
2021/09/26 06:21:32;;;;;;;10.40;8.95;;;15.10;82.90;;;;;;5064649;28;20029;-67
2021/09/26 06:23:57;;;;;;;9.85;8.32;;;15.10;82.60;;;;;;5065963;28;20056;-68
2021/09/26 06:26:25;;;;;;;10.70;9.02;;;15.20;82.30;;;;;;5063999;28;20032;-67
2021/09/26 06:28:51;;;;;;;11.38;8.40;;;15.30;82.10;;;;;;5073159;28;20548;-67
2021/09/26 06:31:17;;;;;;;10.43;7.97;;;15.70;80.90;;;;;;5069153;28;20032;-68
2021/09/26 06:33:43;;;;;;;10.10;8.32;;;16.10;79.70;;;;;;5069023;28;20035;-66
2021/09/26 06:36:08;;;;;;;10.13;7.47;;;16.40;78.60;;;;;;5073358;28;20037;-67
2021/09/26 06:38:34;;;;;;;10.20;7.55;;;17.00;76.60;;;;;;5068244;28;20055;-67
2021/09/26 06:41:00;;;;;;;9.70;6.88;;;17.90;73.70;;;;;;5070634;28;20024;-67
2021/09/26 06:43:25;;;;;;;8.80;6.57;;;18.50;71.30;;;;;;5071113;28;20413;-68
2021/09/26 06:45:51;;;;;;;7.53;6.35;;;18.50;70.70;;;;;;5069557;28;20032;-67
2021/09/26 06:48:16;;;;;;;8.00;6.53;;;18.10;71.70;;;;;;5069840;28;20020;-67
2021/09/26 06:50:42;;;;;;;9.35;6.00;;;18.20;72.20;;;;;;5061863;28;20032;-67
2021/09/26 06:53:07;;;;;;;8.88;6.63;;;19.00;71.10;;;;;;5066202;28;20024;-67
2021/09/26 06:55:36;;;;;;;7.53;6.10;;;19.70;66.80;;;;;;5069743;28;20036;-67
2021/09/26 06:58:01;;;;;;;8.80;5.80;;;19.40;67.40;;;;;;5068339;28;20521;-67
2021/09/26 07:00:27;;;;;;;12.15;6.55;;;20.20;65.70;;;;;;5069656;28;20131;-67
2021/09/26 07:02:52;;;;;;;6.93;5.80;;;20.50;63.70;;;;;;5067679;28;20060;-67
2021/09/26 07:05:19;;;;;;;8.68;6.40;;;20.20;64.00;;;;;;5070265;28;20033;-68
2021/09/26 07:07:46;;;;;;;9.80;6.80;;;20.10;64.40;;;;;;5065808;28;20028;-68
2021/09/26 07:10:12;;;;;;;6.90;5.43;;;20.00;65.10;;;;;;5062717;28;20107;-67
2021/09/26 07:12:38;;;;;;;7.30;5.85;;;20.50;64.20;;;;;;5069424;28;20039;-67
2021/09/26 07:15:04;;;;;;;6.22;5.57;;;20.80;62.60;;;;;;5068015;28;20461;-67
2021/09/26 07:17:31;;;;;;;8.20;5.88;;;21.00;61.20;;;;;;5067969;28;20041;-68
2021/09/26 07:19:57;;;;;;;7.13;5.88;;;21.40;60.40;;;;;;5070857;28;20398;-67
2021/09/26 07:22:25;;;;;;;8.25;6.35;;;21.00;61.00;;;;;;5070058;28;20478;-67
2021/09/26 07:24:54;;;;;;;11.07;6.50;;;20.70;62.20;;;;;;5085543;28;20035;-67
2021/09/26 07:27:21;;;;;;;7.47;5.72;;;20.50;63.40;;;;;;5068147;28;20054;-67
2021/09/26 07:29:47;;;;;;;6.32;5.72;;;20.50;63.60;;;;;;5068472;28;20086;-67
2021/09/26 07:32:13;;;;;;;10.15;5.80;;;20.70;62.90;;;;;;5062314;28;20029;-67
2021/09/26 07:34:40;;;;;;;9.52;6.13;;;20.70;63.40;;;;;;5068042;28;20406;-67
2021/09/26 07:37:06;;;;;;;7.40;5.63;;;20.40;64.50;;;;;;5068863;28;20024;-68
2021/09/26 07:39:31;;;;;;;7.63;5.40;;;20.30;64.60;;;;;;5070825;28;20095;-68
2021/09/26 07:41:57;;;;;;;9.95;6.28;;;20.50;64.90;;;;;;5064809;28;20551;-69
2021/09/26 07:44:23;;;;;;;7.03;5.60;;;20.40;64.70;;;;;;5064167;28;20071;-67
2021/09/26 07:46:48;;;;;;;7.15;5.20;;;20.40;65.10;;;;;;5061689;28;20052;-67
2021/09/26 07:49:15;;;;;;;5.93;5.32;;;20.50;65.60;;;;;;5064050;28;20070;-67
2021/09/26 07:51:40;;;;;;;11.30;5.63;;;20.60;64.00;;;;;;5066268;28;20514;-67
2021/09/26 07:54:06;;;;;;;6.50;4.80;;;21.50;62.00;;;;;;5066624;28;20056;-68
2021/09/26 07:56:31;;;;;;;7.97;6.00;;;22.50;58.50;;;;;;5067756;28;20028;-67
2021/09/26 07:58:57;;;;;;;7.38;5.43;;;22.70;57.10;;;;;;5063938;28;20020;-68
2021/09/26 08:01:23;;;;;;;6.47;5.18;;;22.80;57.70;;;;;;5065710;28;20037;-68
2021/09/26 08:03:48;;;;;;;9.48;5.78;;;22.50;57.90;;;;;;5084420;28;20031;-67
2021/09/26 08:06:16;;;;;;;8.68;5.28;;;22.40;58.60;;;;;;5068689;28;20050;-67
2021/09/26 08:08:42;;;;;;;7.43;5.38;;;22.30;58.70;;;;;;5071244;28;20439;-67
2021/09/26 08:11:08;;;;;;;6.13;5.53;;;21.90;60.40;;;;;;5067726;28;20107;-68
2021/09/26 08:13:34;;;;;;;9.43;5.57;;;22.00;59.90;;;;;;5058213;28;20020;-67
2021/09/26 08:15:59;;;;;;;6.30;5.60;;;22.00;59.90;;;;;;5061842;28;20024;-68
2021/09/26 08:18:25;;;;;;;7.53;5.45;;;21.90;59.80;;;;;;5062429;28;20489;-68
2021/09/26 08:20:51;;;;;;;8.65;5.47;;;21.50;61.60;;;;;;5054150;28;20044;-67
2021/09/26 08:23:16;;;;;;;8.63;5.63;;;21.40;62.50;;;;;;5067630;28;20025;-68
2021/09/26 08:25:42;;;;;;;9.25;5.75;;;21.00;63.60;;;;;;5069913;28;20036;-68
2021/09/26 08:28:07;;;;;;;7.00;4.97;;;20.70;65.00;;;;;;5067721;28;20029;-67
2021/09/26 08:30:33;;;;;;;8.05;5.05;;;20.70;65.10;;;;;;5068434;28;20028;-67
2021/09/26 08:32:59;;;;;;;6.00;5.10;;;20.90;65.30;;;;;;5069897;28;20024;-68
2021/09/26 08:35:24;;;;;;;10.82;4.43;;;21.10;65.00;;;;;;5058808;28;20093;-68
2021/09/26 08:37:50;;;;;;;11.70;5.57;;;;;;;;;;5070261;28;20649;-68
2021/09/26 08:40:16;;;;;;;8.10;5.00;;;22.50;61.10;;;;;;5064329;28;20062;-68
2021/09/26 08:42:42;;;;;;;6.15;4.63;;;23.00;59.60;;;;;;5065306;28;20486;-68
2021/09/26 08:45:12;;;;;;;7.65;4.85;;;23.40;58.20;;;;;;5061272;28;20020;-68
2021/09/26 08:47:39;;;;;;;7.67;4.83;;;23.60;57.60;;;;;;5067927;28;20048;-68
2021/09/26 08:50:10;;;;;;;8.85;5.72;;;23.40;57.60;;;;;;5066627;28;20316;-68
2021/09/26 08:52:36;;;;;;;5.13;4.38;;;23.10;58.20;;;;;;5059218;28;20043;-68
2021/09/26 08:55:02;;;;;;;8.25;5.28;;;22.90;59.40;;;;;;5066938;28;20115;-68
2021/09/26 08:57:28;;;;;;;7.93;5.47;;;23.00;59.00;;;;;;5064984;28;20124;-68
2021/09/26 08:59:53;;;;;;;6.40;4.35;;;22.90;59.90;;;;;;5057576;28;20522;-68
2021/09/26 09:02:19;;;;;;;5.72;4.40;;;23.40;59.30;;;;;;5062606;28;20040;-67
2021/09/26 09:04:45;;;;;;;5.68;4.80;;;23.80;58.00;;;;;;5058713;28;20025;-68
2021/09/26 09:07:12;;;;;;;5.63;4.72;;;23.70;57.60;;;;;;5066151;28;20033;-68
2021/09/26 09:09:52;;;;;;;7.75;5.07;;;23.60;57.70;;;;;;5070380;28;20020;-68
2021/09/26 09:12:23;;;;;;;5.65;5.05;;;23.50;58.20;;;;;;5061821;28;20056;-68
2021/09/26 09:14:51;;;;;;;;;;;23.40;59.10;;;;;;5069479;28;20488;-69
2021/09/26 09:17:27;;;;;;;6.32;4.55;;;23.50;58.20;;;;;;5068289;28;19908;-69
2021/09/26 09:20:16;;;;;;;6.20;4.57;;;23.60;58.60;;;;;;5056989;28;20021;-68
2021/09/26 09:22:44;;;;;;;6.05;4.32;;;23.70;58.20;;;;;;5070324;28;20439;-69
2021/09/26 09:25:32;;;;;;;5.75;4.47;;;23.50;59.20;;;;;;5070882;28;20021;-68
2021/09/26 09:28:00;;;;;;;7.30;4.53;;;23.40;59.50;;;;;;5054088;28;20048;-68
2021/09/26 09:30:37;;;;;;;9.27;4.53;;;23.20;59.60;;;;;;5070304;28;20032;-68
2021/09/26 09:33:04;;;;;;;8.50;4.57;;;23.50;60.00;;;;;;5070963;28;20033;-68
2021/09/26 09:35:35;;;;;;;7.25;4.30;;;23.50;58.30;;;;;;5066841;28;20025;-69
2021/09/26 09:38:01;;;;;;;4.38;3.97;;;23.50;57.80;;;;;;5071081;28;20032;-68
2021/09/26 09:40:26;;;;;;;4.93;4.20;;;23.50;57.90;;;;;;5069120;28;20029;-68
2021/09/26 09:42:54;;;;;;;6.00;4.05;;;23.50;57.70;;;;;;5069493;28;20481;-68
2021/09/26 09:45:36;;;;;;;5.68;3.83;;;23.40;58.60;;;;;;5070582;28;20043;-69
2021/09/26 09:48:10;;;;;;;5.15;3.90;;;23.40;57.30;;;;;;5070847;28;20021;-69
2021/09/26 09:50:54;;;;;;;5.28;3.83;;;23.40;57.80;;;;;;5062988;28;20028;-68
2021/09/26 09:53:26;;;;;;;4.13;3.72;;;23.40;56.50;;;;;;5070758;28;20029;-68
2021/09/26 09:56:05;;;;;;;;;;;23.50;57.40;;;;;;5071331;28;20151;-68
2021/09/26 09:58:38;;;;;;;8.02;3.78;;;23.60;57.60;;;;;;5071156;28;19977;-69
2021/09/26 10:01:06;;;;;;;4.88;3.83;;;23.60;57.50;;;;;;5068436;28;20478;-68
2021/09/26 10:03:53;;;;;;;6.65;4.07;;;23.60;57.10;;;;;;5068970;28;20037;-68
2021/09/26 10:06:19;;;;;;;8.30;4.10;;;23.50;55.10;;;;;;5069395;28;20020;-68
2021/09/26 10:08:45;;;;;;;5.82;3.80;;;23.50;55.50;;;;;;5070669;28;20020;-68
2021/09/26 10:11:11;;;;;;;5.60;3.55;;;23.30;54.50;;;;;;5069875;28;20027;-68
2021/09/26 10:13:36;;;;;;;4.80;3.38;;;23.30;53.80;;;;;;5065414;28;20100;-68
2021/09/26 10:16:04;;;;;;;5.75;3.50;;;23.30;54.50;;;;;;5059143;28;20039;-68
2021/09/26 10:18:30;;;;;;;6.45;3.80;;;23.40;53.90;;;;;;5068976;28;20387;-68
2021/09/26 10:20:56;;;;;;;4.32;3.40;;;23.40;53.40;;;;;;5053482;28;20021;-69
2021/09/26 10:23:23;;;;;;;3.40;3.10;;;23.50;53.70;;;;;;5066911;28;20071;-69
2021/09/26 10:25:49;;;;;;;5.45;3.78;;;23.50;53.90;;;;;;5057541;28;20187;-68
2021/09/26 10:28:16;;;;;;;4.13;3.60;;;23.50;54.80;;;;;;5096996;22;20506;-70
2021/09/26 10:30:43;;;;;;;6.03;4.20;;;23.50;54.90;;;;;;5072364;28;20020;-69
2021/09/26 10:33:11;;;;;;;4.75;3.40;;;23.50;55.10;;;;;;5073747;28;20482;-69
2021/09/26 10:35:38;;;;;;;5.07;3.65;;;23.60;55.60;;;;;;5074328;28;20024;-69
2021/09/26 10:38:10;;;;;;;4.72;4.15;;;23.70;56.00;;;;;;5073988;28;20029;-70
2021/09/26 10:40:39;;;;;;;7.03;3.40;;;23.70;55.40;;;;;;5073256;28;20020;-70
2021/09/26 10:43:24;;;;;;;6.28;3.95;;;23.70;55.40;;;;;;5073857;28;20368;-69
2021/09/26 10:46:14;;;;;;;4.82;3.95;;;23.70;55.50;;;;;;5073006;28;20025;-68
2021/09/26 10:49:00;;;;;;;6.50;3.47;;;23.70;55.30;;;;;;5073582;28;20028;-66
2021/09/26 10:51:47;;;;;;;8.77;3.90;;;23.70;54.90;;;;;;5073602;28;20032;-69
2021/09/26 10:54:21;;;;;;;4.70;3.55;;;23.70;55.40;;;;;;5073488;28;20056;-69
2021/09/26 10:56:48;;;;;;;6.47;3.72;;;23.80;55.60;;;;;;5068960;28;20055;-68
2021/09/26 10:59:14;;;;;;;6.03;3.35;;;23.80;55.00;;;;;;5066246;28;20115;-69
2021/09/26 11:01:39;;;;;;;4.47;3.47;;;23.80;54.80;;;;;;5064930;28;20119;-70
2021/09/26 11:04:10;;;;;;;6.65;3.45;;;23.90;54.50;;;;;;5067407;28;20056;-70
2021/09/26 11:06:35;;;;;;;6.07;3.57;;;24.00;53.80;;;;;;5072423;28;20588;-69
2021/09/26 11:09:03;;;;;;;7.07;3.65;;;24.00;54.70;;;;;;5070602;28;20033;-69
2021/09/26 11:11:43;;;;;;;6.93;3.42;;;23.90;53.80;;;;;;5068003;28;20024;-68
2021/09/26 11:14:10;;;;;;;7.13;3.72;;;24.00;54.20;;;;;;5063009;28;20020;-70
2021/09/26 11:16:52;;;;;;;3.90;3.50;;;24.00;53.80;;;;;;5064757;28;20056;-69
2021/09/26 11:19:18;;;;;;;5.03;3.80;;;24.00;53.70;;;;;;5064819;28;20116;-69
2021/09/26 11:21:55;;;;;;;5.03;3.60;;;24.00;53.80;;;;;;5069477;28;20458;-71
2021/09/26 11:24:21;;;;;;;7.70;3.83;;;24.00;54.00;;;;;;5066858;28;20033;-70
2021/09/26 11:27:02;;;;;;;5.20;3.80;;;24.00;53.90;;;;;;5068651;28;20021;-70
2021/09/26 11:29:41;;;;;;;6.72;3.67;;;24.10;54.00;;;;;;5066634;28;20032;-69
2021/09/26 11:32:19;;;;;;;4.85;3.00;;;24.10;52.40;;;;;;5070009;28;20074;-70
2021/09/26 11:34:49;;;;;;;7.53;3.67;;;24.20;52.30;;;;;;5069241;28;20110;-69
2021/09/26 11:37:15;;;;;;;3.22;2.92;;;24.30;52.60;;;;;;5066400;28;20029;-73
2021/09/26 11:39:49;;;;;;;3.47;2.88;;;24.30;51.60;;;;;;5067884;28;20592;-72
2021/09/26 11:42:30;;;;;;;4.63;2.85;;;24.30;50.10;;;;;;5070562;28;20028;-72
2021/09/26 11:44:58;;;;;;;3.05;2.78;;;24.40;49.40;;;;;;5069755;28;20035;-73
2021/09/26 11:47:25;;;;;;;3.33;3.03;;;24.40;49.40;;;;;;5072314;28;20033;-72
2021/09/26 11:49:51;;;;;;;6.75;3.05;;;24.50;49.40;;;;;;5071553;28;20138;-72
2021/09/26 11:52:20;;;;;;;4.90;3.10;;;24.50;48.70;;;;;;5073358;28;20067;-71
2021/09/26 11:54:46;;;;;;;4.72;2.83;;;24.50;48.90;;;;;;5073083;28;20047;-74
2021/09/26 11:57:12;;;;;;;5.15;2.92;;;24.60;49.30;;;;;;5071585;28;20481;-72
2021/09/26 11:59:42;;;;;;;8.60;4.03;;;24.60;48.80;;;;;;5064759;28;20498;-73
2021/09/26 12:02:12;;;;;;;5.82;2.90;;;24.70;47.50;;;;;;5057455;28;20051;-73
2021/09/26 12:04:37;;;;;;;3.85;3.10;;;24.90;47.80;;;;;;5072793;28;20035;-73
2021/09/26 12:07:05;;;;;;;5.35;3.47;;;25.20;47.60;;;;;;5072334;28;20128;-73
2021/09/26 12:09:41;;;;;;;5.65;2.78;;;25.40;47.30;;;;;;5071654;28;20108;-74
2021/09/26 12:12:10;;;;;;;7.32;2.97;;;25.50;46.40;;;;;;5072106;28;20012;-72
2021/09/26 12:14:38;;;;;;;3.10;2.80;;;25.60;45.90;;;;;;5072075;28;20028;-73
2021/09/26 12:17:07;;;;;;;4.25;3.25;;;25.70;45.60;;;;;;5072239;28;20417;-73
2021/09/26 12:19:34;;;;;;;5.25;2.95;;;25.80;45.50;;;;;;5071437;28;20020;-73
2021/09/26 12:22:12;;;;;;;4.10;3.00;;;26.00;45.10;;;;;;5065222;28;20035;-73
2021/09/26 12:24:46;;;;;;;3.13;2.83;;;26.00;46.60;;;;;;5063000;28;20433;-72
2021/09/26 12:27:22;;;;;;;4.40;2.83;;;26.20;46.30;;;;;;5071745;28;20017;-74
2021/09/26 12:29:55;;;;;;;5.30;3.10;;;26.30;45.10;;;;;;5071506;28;20040;-73
2021/09/26 12:32:30;;;;;;;5.03;2.97;;;26.40;43.30;;;;;;5071910;28;20379;-73
2021/09/26 12:34:58;;;;;;;5.50;2.80;;;26.20;43.80;;;;;;5072038;28;20085;-72
2021/09/26 12:37:29;;;;;;;6.10;3.03;;;26.10;43.60;;;;;;5070846;28;20367;-72
2021/09/26 12:39:59;;;;;;;6.68;3.50;;;26.00;43.80;;;;;;5054470;28;20427;-73
2021/09/26 12:42:28;;;;;;;4.43;2.90;;;26.00;44.60;;;;;;5071607;28;20021;-74
2021/09/26 12:44:54;;;;;;;5.28;2.88;;;26.20;44.40;;;;;;5071158;28;20024;-74